Date,TemperatureHighF,TemperatureAvgF,TemperatureLowF,DewpointHighF,DewpointAvgF,DewpointLowF,HumidityHigh,HumidityAvg,HumidityLow,PressureMaxIn,PressureMinIn,WindSpeedMaxMPH,WindSpeedAvgMPH,GustSpeedMaxMPH,PrecipitationSumIn
2013-9-1,83,67,56,63,59,55,96,77,46,29.87,29.77,5,1,9,0.00
2013-9-2,83,68,58,63,59,57,94,74,47,29.93,29.84,6,0,10,0.00
2013-9-3,73,64,59,66,57,-100,95,86,68,30.02,29.92,5,-10,6,0.28
2013-9-4,70,63,57,63,60,56,96,90,78,30.04,29.99,5,0,7,0.03
2013-9-5,68,62,59,63,60,58,95,92,84,30.02,29.91,3,0,8,0.28
2013-9-6,71,64,61,66,61,59,95,92,81,30.09,29.92,5,0,6,0.85
2013-9-7,73,64,58,65,60,57,96,89,71,30.09,30.00,4,0,5,0.00
2013-9-8,77,65,55,63,59,54,96,83,60,30.10,30.00,6,1,6,0.01
2013-9-9,77,63,54,64,59,53,96,86,63,30.06,29.96,5,1,7,0.00
2013-9-10,76,64,53,63,58,52,96,82,61,29.98,29.87,8,2,11,0.00
2013-9-11,90,72,57,65,60,55,96,70,35,29.93,29.84,4,0,5,0.00
2013-9-12,78,66,59,64,61,58,95,84,62,29.99,29.88,4,1,7,0.00
2013-9-13,69,63,60,63,61,59,95,91,82,29.95,29.86,5,1,7,0.00
2013-9-14,68,63,58,62,60,57,96,90,80,29.86,29.72,6,1,9,0.00
2013-9-15,66,60,56,62,59,55,96,94,88,29.80,29.69,2,0,7,0.24
2013-9-16,68,61,57,62,59,56,95,92,78,29.92,29.78,6,1,10,0.17
2013-9-17,64,59,55,58,55,53,96,89,72,29.92,29.85,3,0,5,0.01
2013-9-18,68,58,53,56,53,50,96,84,54,30.07,29.92,4,0,9,0.00
2013-9-19,79,61,49,56,52,48,96,76,36,30.03,29.74,3,0,5,0.01
2013-9-20,73,61,51,59,54,49,95,81,57,29.74,29.58,6,1,8,0.07
2013-9-21,66,59,54,58,55,53,96,87,71,29.71,29.64,4,0,6,0.00
2013-9-22,60,56,54,58,55,53,96,94,90,29.71,29.54,20,1,20,0.69
2013-9-23,63,55,49,58,53,48,96,92,80,29.95,29.72,5,1,11,0.99
2013-9-24,63,53,46,55,49,45,96,87,61,29.95,29.82,5,1,10,0.08
2013-9-25,60,53,47,51,49,46,96,88,70,30.02,29.85,10,1,15,0.04
2013-9-26,62,51,44,52,48,43,96,88,68,30.11,30.02,3,0,6,0.00
2013-9-27,57,54,48,55,52,47,96,93,90,30.10,29.84,4,1,14,0.03
2013-9-28,60,55,51,58,54,50,96,95,94,29.83,29.32,14,1,21,1.90
2013-9-29,54,53,50,53,51,48,96,95,92,29.52,29.14,10,2,16,1.34
2013-9-30,59,52,48,55,50,46,96,92,78,29.90,29.39,7,1,13,0.27